sensor_id;sensor_type;location;lat;lon;timestamp;P1;durP1;ratioP1;P2;durP2;ratioP2
31676;SDS011;18385;51.572;6.578;2023-07-13T00:02:21;4.07;;;0.82;;
31676;SDS011;18385;51.572;6.578;2023-07-13T00:04:47;3.25;;;0.88;;
31676;SDS011;18385;51.572;6.578;2023-07-13T00:07:12;3.03;;;1.00;;
31676;SDS011;18385;51.572;6.578;2023-07-13T00:09:39;7.50;;;1.00;;
31676;SDS011;18385;51.572;6.578;2023-07-13T00:12:05;4.00;;;0.80;;
31676;SDS011;18385;51.572;6.578;2023-07-13T00:14:58;7.70;;;0.80;;
31676;SDS011;18385;51.572;6.578;2023-07-13T00:17:25;3.42;;;1.00;;
31676;SDS011;18385;51.572;6.578;2023-07-13T00:19:52;5.18;;;0.85;;
31676;SDS011;18385;51.572;6.578;2023-07-13T00:22:18;3.20;;;0.70;;
31676;SDS011;18385;51.572;6.578;2023-07-13T00:24:45;10.40;;;1.27;;
31676;SDS011;18385;51.572;6.578;2023-07-13T00:27:11;2.92;;;0.80;;
31676;SDS011;18385;51.572;6.578;2023-07-13T00:29:37;3.38;;;0.70;;
31676;SDS011;18385;51.572;6.578;2023-07-13T00:32:06;4.30;;;1.30;;
31676;SDS011;18385;51.572;6.578;2023-07-13T00:34:35;3.00;;;0.80;;
31676;SDS011;18385;51.572;6.578;2023-07-13T00:37:01;6.40;;;1.13;;
31676;SDS011;18385;51.572;6.578;2023-07-13T00:39:27;3.38;;;0.90;;
31676;SDS011;18385;51.572;6.578;2023-07-13T00:41:53;4.50;;;0.85;;
31676;SDS011;18385;51.572;6.578;2023-07-13T00:44:19;4.07;;;0.70;;
31676;SDS011;18385;51.572;6.578;2023-07-13T00:49:15;5.78;;;0.93;;
31676;SDS011;18385;51.572;6.578;2023-07-13T00:51:45;5.63;;;0.75;;
31676;SDS011;18385;51.572;6.578;2023-07-13T00:54:18;5.03;;;0.98;;
31676;SDS011;18385;51.572;6.578;2023-07-13T00:56:48;3.85;;;0.77;;
31676;SDS011;18385;51.572;6.578;2023-07-13T00:59:16;3.47;;;0.77;;
31676;SDS011;18385;51.572;6.578;2023-07-13T01:01:45;4.43;;;1.20;;
31676;SDS011;18385;51.572;6.578;2023-07-13T01:04:11;5.55;;;0.80;;
31676;SDS011;18385;51.572;6.578;2023-07-13T01:06:38;4.93;;;0.93;;
31676;SDS011;18385;51.572;6.578;2023-07-13T01:09:05;2.50;;;0.63;;
31676;SDS011;18385;51.572;6.578;2023-07-13T01:11:32;6.40;;;1.20;;
31676;SDS011;18385;51.572;6.578;2023-07-13T01:14:00;3.20;;;1.00;;
31676;SDS011;18385;51.572;6.578;2023-07-13T01:16:28;7.97;;;0.90;;
31676;SDS011;18385;51.572;6.578;2023-07-13T01:18:59;6.25;;;0.90;;
31676;SDS011;18385;51.572;6.578;2023-07-13T01:21:29;5.95;;;1.00;;
31676;SDS011;18385;51.572;6.578;2023-07-13T01:23:58;3.97;;;1.00;;
31676;SDS011;18385;51.572;6.578;2023-07-13T01:26:24;6.72;;;0.93;;
31676;SDS011;18385;51.572;6.578;2023-07-13T01:28:49;2.83;;;0.88;;
31676;SDS011;18385;51.572;6.578;2023-07-13T01:31:15;4.00;;;1.10;;
31676;SDS011;18385;51.572;6.578;2023-07-13T01:33:41;4.72;;;0.95;;
31676;SDS011;18385;51.572;6.578;2023-07-13T01:36:07;5.72;;;1.15;;
31676;SDS011;18385;51.572;6.578;2023-07-13T01:38:34;4.70;;;1.00;;
31676;SDS011;18385;51.572;6.578;2023-07-13T01:41:00;6.43;;;0.73;;
31676;SDS011;18385;51.572;6.578;2023-07-13T01:43:26;5.25;;;1.02;;
31676;SDS011;18385;51.572;6.578;2023-07-13T01:45:52;4.32;;;1.00;;
31676;SDS011;18385;51.572;6.578;2023-07-13T01:48:18;4.45;;;0.93;;
31676;SDS011;18385;51.572;6.578;2023-07-13T01:50:47;2.25;;;0.73;;
31676;SDS011;18385;51.572;6.578;2023-07-13T01:53:13;3.30;;;1.00;;
31676;SDS011;18385;51.572;6.578;2023-07-13T01:55:38;5.93;;;0.90;;
31676;SDS011;18385;51.572;6.578;2023-07-13T01:58:04;5.57;;;1.10;;
31676;SDS011;18385;51.572;6.578;2023-07-13T02:00:31;4.50;;;1.00;;
31676;SDS011;18385;51.572;6.578;2023-07-13T02:02:56;4.35;;;1.00;;
31676;SDS011;18385;51.572;6.578;2023-07-13T02:05:23;6.47;;;1.00;;
31676;SDS011;18385;51.572;6.578;2023-07-13T02:07:48;5.40;;;1.15;;
31676;SDS011;18385;51.572;6.578;2023-07-13T02:10:14;6.53;;;1.00;;
31676;SDS011;18385;51.572;6.578;2023-07-13T02:12:40;3.67;;;0.82;;
31676;SDS011;18385;51.572;6.578;2023-07-13T02:15:07;5.68;;;0.98;;
31676;SDS011;18385;51.572;6.578;2023-07-13T02:17:33;3.45;;;0.90;;
31676;SDS011;18385;51.572;6.578;2023-07-13T02:20:00;6.30;;;0.80;;
31676;SDS011;18385;51.572;6.578;2023-07-13T02:22:25;3.30;;;0.65;;
31676;SDS011;18385;51.572;6.578;2023-07-13T02:24:51;4.43;;;0.98;;
31676;SDS011;18385;51.572;6.578;2023-07-13T02:27:17;5.65;;;0.82;;
31676;SDS011;18385;51.572;6.578;2023-07-13T02:29:43;5.22;;;1.10;;
31676;SDS011;18385;51.572;6.578;2023-07-13T02:32:09;2.63;;;0.93;;
31676;SDS011;18385;51.572;6.578;2023-07-13T02:34:35;5.45;;;1.10;;
31676;SDS011;18385;51.572;6.578;2023-07-13T02:37:03;6.10;;;1.15;;
31676;SDS011;18385;51.572;6.578;2023-07-13T02:39:29;7.25;;;1.20;;
31676;SDS011;18385;51.572;6.578;2023-07-13T02:41:58;3.38;;;0.80;;
31676;SDS011;18385;51.572;6.578;2023-07-13T02:44:25;4.35;;;0.80;;
31676;SDS011;18385;51.572;6.578;2023-07-13T02:46:51;3.72;;;1.00;;
31676;SDS011;18385;51.572;6.578;2023-07-13T02:49:17;4.28;;;0.80;;
31676;SDS011;18385;51.572;6.578;2023-07-13T02:51:42;3.25;;;0.80;;
31676;SDS011;18385;51.572;6.578;2023-07-13T02:54:09;4.97;;;1.05;;
31676;SDS011;18385;51.572;6.578;2023-07-13T02:56:36;5.45;;;0.93;;
31676;SDS011;18385;51.572;6.578;2023-07-13T02:59:04;7.78;;;1.35;;
31676;SDS011;18385;51.572;6.578;2023-07-13T03:01:30;7.57;;;1.30;;
31676;SDS011;18385;51.572;6.578;2023-07-13T03:03:59;2.55;;;0.60;;
31676;SDS011;18385;51.572;6.578;2023-07-13T03:06:25;6.70;;;0.80;;
31676;SDS011;18385;51.572;6.578;2023-07-13T03:08:52;4.63;;;0.63;;
31676;SDS011;18385;51.572;6.578;2023-07-13T03:11:19;4.72;;;0.80;;
31676;SDS011;18385;51.572;6.578;2023-07-13T03:13:51;10.30;;;1.30;;
31676;SDS011;18385;51.572;6.578;2023-07-13T03:16:19;4.05;;;0.80;;
31676;SDS011;18385;51.572;6.578;2023-07-13T03:18:47;4.75;;;1.33;;
31676;SDS011;18385;51.572;6.578;2023-07-13T03:21:13;6.78;;;1.00;;
31676;SDS011;18385;51.572;6.578;2023-07-13T03:23:39;3.67;;;1.00;;
31676;SDS011;18385;51.572;6.578;2023-07-13T03:26:10;4.22;;;0.90;;
31676;SDS011;18385;51.572;6.578;2023-07-13T03:28:42;4.40;;;0.95;;
31676;SDS011;18385;51.572;6.578;2023-07-13T03:31:13;5.35;;;0.90;;
31676;SDS011;18385;51.572;6.578;2023-07-13T03:33:44;3.55;;;0.70;;
31676;SDS011;18385;51.572;6.578;2023-07-13T03:36:12;5.35;;;1.05;;
31676;SDS011;18385;51.572;6.578;2023-07-13T03:38:45;3.65;;;0.88;;
31676;SDS011;18385;51.572;6.578;2023-07-13T03:41:17;3.83;;;1.13;;
31676;SDS011;18385;51.572;6.578;2023-07-13T03:43:44;5.43;;;0.80;;
31676;SDS011;18385;51.572;6.578;2023-07-13T03:46:11;6.65;;;1.10;;
31676;SDS011;18385;51.572;6.578;2023-07-13T03:48:36;4.68;;;1.02;;
31676;SDS011;18385;51.572;6.578;2023-07-13T03:51:05;7.15;;;1.00;;
31676;SDS011;18385;51.572;6.578;2023-07-13T03:53:30;4.40;;;0.80;;
31676;SDS011;18385;51.572;6.578;2023-07-13T03:55:56;4.68;;;0.70;;
31676;SDS011;18385;51.572;6.578;2023-07-13T03:58:31;2.38;;;0.90;;
31676;SDS011;18385;51.572;6.578;2023-07-13T04:01:07;2.10;;;0.77;;
31676;SDS011;18385;51.572;6.578;2023-07-13T04:03:34;6.55;;;0.98;;
31676;SDS011;18385;51.572;6.578;2023-07-13T04:06:00;4.28;;;1.00;;
31676;SDS011;18385;51.572;6.578;2023-07-13T04:08:29;7.22;;;1.10;;
31676;SDS011;18385;51.572;6.578;2023-07-13T04:10:56;3.58;;;1.10;;
31676;SDS011;18385;51.572;6.578;2023-07-13T04:13:22;4.32;;;0.95;;
31676;SDS011;18385;51.572;6.578;2023-07-13T04:15:48;2.83;;;0.98;;
31676;SDS011;18385;51.572;6.578;2023-07-13T04:18:14;6.10;;;1.23;;
31676;SDS011;18385;51.572;6.578;2023-07-13T04:20:39;6.75;;;1.00;;
31676;SDS011;18385;51.572;6.578;2023-07-13T04:23:05;4.90;;;1.20;;
31676;SDS011;18385;51.572;6.578;2023-07-13T04:25:31;6.47;;;1.10;;
31676;SDS011;18385;51.572;6.578;2023-07-13T04:27:56;5.30;;;1.25;;
31676;SDS011;18385;51.572;6.578;2023-07-13T04:30:22;5.95;;;1.40;;
31676;SDS011;18385;51.572;6.578;2023-07-13T04:32:49;5.22;;;1.00;;
31676;SDS011;18385;51.572;6.578;2023-07-13T04:35:17;4.75;;;1.70;;
31676;SDS011;18385;51.572;6.578;2023-07-13T04:37:46;4.00;;;0.98;;
31676;SDS011;18385;51.572;6.578;2023-07-13T04:40:15;4.47;;;1.00;;
31676;SDS011;18385;51.572;6.578;2023-07-13T04:42:44;5.18;;;1.10;;
31676;SDS011;18385;51.572;6.578;2023-07-13T04:45:11;5.90;;;1.25;;
31676;SDS011;18385;51.572;6.578;2023-07-13T04:47:38;7.20;;;1.27;;
31676;SDS011;18385;51.572;6.578;2023-07-13T04:50:04;4.88;;;1.67;;
31676;SDS011;18385;51.572;6.578;2023-07-13T04:52:30;4.30;;;1.20;;
31676;SDS011;18385;51.572;6.578;2023-07-13T04:54:55;6.35;;;1.08;;
31676;SDS011;18385;51.572;6.578;2023-07-13T04:57:21;7.97;;;1.30;;
31676;SDS011;18385;51.572;6.578;2023-07-13T04:59:47;4.07;;;1.02;;
31676;SDS011;18385;51.572;6.578;2023-07-13T05:02:13;7.15;;;1.02;;
31676;SDS011;18385;51.572;6.578;2023-07-13T05:04:38;6.55;;;1.35;;
31676;SDS011;18385;51.572;6.578;2023-07-13T05:07:04;8.52;;;1.30;;
31676;SDS011;18385;51.572;6.578;2023-07-13T05:09:31;6.47;;;1.48;;
31676;SDS011;18385;51.572;6.578;2023-07-13T05:11:57;4.78;;;1.05;;
31676;SDS011;18385;51.572;6.578;2023-07-13T05:14:22;7.18;;;1.73;;
31676;SDS011;18385;51.572;6.578;2023-07-13T05:16:48;9.70;;;1.73;;
31676;SDS011;18385;51.572;6.578;2023-07-13T05:19:13;11.35;;;1.83;;
31676;SDS011;18385;51.572;6.578;2023-07-13T05:21:39;3.92;;;1.30;;
31676;SDS011;18385;51.572;6.578;2023-07-13T05:24:06;5.80;;;1.33;;
31676;SDS011;18385;51.572;6.578;2023-07-13T05:26:31;6.50;;;1.35;;
31676;SDS011;18385;51.572;6.578;2023-07-13T05:28:57;4.57;;;1.30;;
31676;SDS011;18385;51.572;6.578;2023-07-13T05:31:23;4.93;;;1.45;;
31676;SDS011;18385;51.572;6.578;2023-07-13T05:33:49;6.97;;;1.55;;
31676;SDS011;18385;51.572;6.578;2023-07-13T05:36:15;6.07;;;1.85;;
31676;SDS011;18385;51.572;6.578;2023-07-13T05:38:40;5.72;;;1.52;;
31676;SDS011;18385;51.572;6.578;2023-07-13T05:41:06;7.18;;;2.25;;
31676;SDS011;18385;51.572;6.578;2023-07-13T05:43:32;6.05;;;1.77;;
31676;SDS011;18385;51.572;6.578;2023-07-13T05:45:58;8.10;;;1.67;;
31676;SDS011;18385;51.572;6.578;2023-07-13T05:48:24;5.90;;;2.25;;
31676;SDS011;18385;51.572;6.578;2023-07-13T05:50:49;8.55;;;1.70;;
31676;SDS011;18385;51.572;6.578;2023-07-13T05:53:15;6.13;;;1.75;;
31676;SDS011;18385;51.572;6.578;2023-07-13T05:55:44;10.95;;;2.30;;
31676;SDS011;18385;51.572;6.578;2023-07-13T05:58:18;7.65;;;2.50;;
31676;SDS011;18385;51.572;6.578;2023-07-13T06:00:44;8.77;;;1.85;;
31676;SDS011;18385;51.572;6.578;2023-07-13T06:03:11;8.32;;;1.77;;
31676;SDS011;18385;51.572;6.578;2023-07-13T06:05:36;12.82;;;3.22;;
31676;SDS011;18385;51.572;6.578;2023-07-13T06:08:04;11.55;;;2.47;;
31676;SDS011;18385;51.572;6.578;2023-07-13T06:10:34;10.18;;;2.35;;
31676;SDS011;18385;51.572;6.578;2023-07-13T06:13:00;10.43;;;2.28;;
31676;SDS011;18385;51.572;6.578;2023-07-13T06:15:26;10.13;;;2.30;;
31676;SDS011;18385;51.572;6.578;2023-07-13T06:17:51;10.57;;;2.70;;
31676;SDS011;18385;51.572;6.578;2023-07-13T06:20:17;9.23;;;2.92;;
31676;SDS011;18385;51.572;6.578;2023-07-13T06:22:43;10.77;;;2.90;;
31676;SDS011;18385;51.572;6.578;2023-07-13T06:25:08;9.80;;;2.10;;
31676;SDS011;18385;51.572;6.578;2023-07-13T06:27:34;13.15;;;3.42;;
31676;SDS011;18385;51.572;6.578;2023-07-13T06:30:02;9.93;;;3.67;;
31676;SDS011;18385;51.572;6.578;2023-07-13T06:32:28;13.73;;;3.72;;
31676;SDS011;18385;51.572;6.578;2023-07-13T06:34:54;25.10;;;4.88;;
31676;SDS011;18385;51.572;6.578;2023-07-13T06:37:20;12.60;;;3.40;;
31676;SDS011;18385;51.572;6.578;2023-07-13T06:39:46;13.73;;;3.13;;
31676;SDS011;18385;51.572;6.578;2023-07-13T06:42:12;11.27;;;2.83;;
31676;SDS011;18385;51.572;6.578;2023-07-13T06:44:37;11.88;;;3.38;;
31676;SDS011;18385;51.572;6.578;2023-07-13T06:47:03;11.23;;;3.10;;
31676;SDS011;18385;51.572;6.578;2023-07-13T06:49:29;17.33;;;5.53;;
31676;SDS011;18385;51.572;6.578;2023-07-13T06:51:54;12.38;;;3.35;;
31676;SDS011;18385;51.572;6.578;2023-07-13T06:54:20;11.98;;;3.80;;
31676;SDS011;18385;51.572;6.578;2023-07-13T06:56:46;13.13;;;3.22;;
31676;SDS011;18385;51.572;6.578;2023-07-13T06:59:11;12.20;;;3.20;;
31676;SDS011;18385;51.572;6.578;2023-07-13T07:01:37;12.30;;;3.15;;
31676;SDS011;18385;51.572;6.578;2023-07-13T07:04:03;15.27;;;3.22;;
31676;SDS011;18385;51.572;6.578;2023-07-13T07:06:29;14.52;;;3.92;;
31676;SDS011;18385;51.572;6.578;2023-07-13T07:08:55;11.65;;;2.88;;
31676;SDS011;18385;51.572;6.578;2023-07-13T07:11:24;10.68;;;2.70;;
31676;SDS011;18385;51.572;6.578;2023-07-13T07:13:51;10.57;;;2.53;;
31676;SDS011;18385;51.572;6.578;2023-07-13T07:16:18;6.53;;;2.22;;
31676;SDS011;18385;51.572;6.578;2023-07-13T07:18:45;11.07;;;2.50;;
31676;SDS011;18385;51.572;6.578;2023-07-13T07:21:11;7.43;;;2.33;;
31676;SDS011;18385;51.572;6.578;2023-07-13T07:23:38;7.28;;;2.90;;
31676;SDS011;18385;51.572;6.578;2023-07-13T07:26:03;10.57;;;2.72;;
31676;SDS011;18385;51.572;6.578;2023-07-13T07:28:29;7.80;;;2.50;;
31676;SDS011;18385;51.572;6.578;2023-07-13T07:30:56;8.57;;;2.72;;
31676;SDS011;18385;51.572;6.578;2023-07-13T07:33:23;11.77;;;2.58;;
31676;SDS011;18385;51.572;6.578;2023-07-13T07:35:49;6.55;;;2.28;;
31676;SDS011;18385;51.572;6.578;2023-07-13T07:38:15;9.63;;;2.70;;
31676;SDS011;18385;51.572;6.578;2023-07-13T07:40:41;11.52;;;3.10;;
31676;SDS011;18385;51.572;6.578;2023-07-13T07:43:08;10.38;;;3.17;;
31676;SDS011;18385;51.572;6.578;2023-07-13T07:45:36;8.32;;;2.85;;
31676;SDS011;18385;51.572;6.578;2023-07-13T07:48:03;8.10;;;2.63;;
31676;SDS011;18385;51.572;6.578;2023-07-13T07:50:29;7.25;;;2.15;;
31676;SDS011;18385;51.572;6.578;2023-07-13T07:52:56;10.27;;;2.42;;
31676;SDS011;18385;51.572;6.578;2023-07-13T07:55:22;9.02;;;2.65;;
31676;SDS011;18385;51.572;6.578;2023-07-13T07:57:48;10.13;;;2.20;;
31676;SDS011;18385;51.572;6.578;2023-07-13T08:00:15;11.18;;;2.28;;
31676;SDS011;18385;51.572;6.578;2023-07-13T08:02:41;7.05;;;2.10;;
31676;SDS011;18385;51.572;6.578;2023-07-13T08:05:08;8.75;;;2.10;;
31676;SDS011;18385;51.572;6.578;2023-07-13T08:07:34;8.88;;;2.85;;
31676;SDS011;18385;51.572;6.578;2023-07-13T08:10:00;7.80;;;2.80;;
31676;SDS011;18385;51.572;6.578;2023-07-13T08:12:26;12.07;;;3.13;;
31676;SDS011;18385;51.572;6.578;2023-07-13T08:14:52;10.25;;;2.67;;
31676;SDS011;18385;51.572;6.578;2023-07-13T08:17:21;7.25;;;2.10;;
31676;SDS011;18385;51.572;6.578;2023-07-13T08:19:47;6.80;;;1.85;;
31676;SDS011;18385;51.572;6.578;2023-07-13T08:22:13;11.80;;;1.85;;
31676;SDS011;18385;51.572;6.578;2023-07-13T08:24:38;10.65;;;2.90;;
31676;SDS011;18385;51.572;6.578;2023-07-13T08:27:04;8.48;;;2.05;;
31676;SDS011;18385;51.572;6.578;2023-07-13T08:29:30;6.60;;;1.88;;
31676;SDS011;18385;51.572;6.578;2023-07-13T08:31:58;4.72;;;2.13;;
31676;SDS011;18385;51.572;6.578;2023-07-13T08:34:24;9.40;;;2.30;;
31676;SDS011;18385;51.572;6.578;2023-07-13T08:36:49;6.97;;;1.60;;
31676;SDS011;18385;51.572;6.578;2023-07-13T08:39:15;6.32;;;2.00;;
31676;SDS011;18385;51.572;6.578;2023-07-13T08:41:41;9.98;;;2.97;;
31676;SDS011;18385;51.572;6.578;2023-07-13T08:44:10;10.00;;;2.58;;
31676;SDS011;18385;51.572;6.578;2023-07-13T08:46:45;6.70;;;1.98;;
31676;SDS011;18385;51.572;6.578;2023-07-13T08:49:13;7.22;;;2.45;;
31676;SDS011;18385;51.572;6.578;2023-07-13T08:56:47;7.07;;;1.95;;
31676;SDS011;18385;51.572;6.578;2023-07-13T08:59:18;7.55;;;1.60;;
31676;SDS011;18385;51.572;6.578;2023-07-13T09:04:21;5.88;;;2.00;;
31676;SDS011;18385;51.572;6.578;2023-07-13T09:07:02;5.40;;;2.00;;
31676;SDS011;18385;51.572;6.578;2023-07-13T09:09:42;6.57;;;2.10;;
31676;SDS011;18385;51.572;6.578;2023-07-13T09:12:28;6.55;;;2.17;;
31676;SDS011;18385;51.572;6.578;2023-07-13T09:15:29;8.90;;;2.10;;
31676;SDS011;18385;51.572;6.578;2023-07-13T09:18:08;5.07;;;2.17;;
31676;SDS011;18385;51.572;6.578;2023-07-13T09:23:34;8.75;;;2.40;;
31676;SDS011;18385;51.572;6.578;2023-07-13T09:26:05;10.88;;;2.78;;
31676;SDS011;18385;51.572;6.578;2023-07-13T09:28:44;16.35;;;3.05;;
31676;SDS011;18385;51.572;6.578;2023-07-13T09:31:16;9.63;;;2.15;;
31676;SDS011;18385;51.572;6.578;2023-07-13T09:33:48;6.93;;;2.75;;
31676;SDS011;18385;51.572;6.578;2023-07-13T09:38:44;9.55;;;2.47;;
31676;SDS011;18385;51.572;6.578;2023-07-13T09:44:15;9.88;;;2.63;;
31676;SDS011;18385;51.572;6.578;2023-07-13T09:46:46;5.33;;;1.83;;
31676;SDS011;18385;51.572;6.578;2023-07-13T09:49:18;10.48;;;2.58;;
31676;SDS011;18385;51.572;6.578;2023-07-13T09:51:44;6.90;;;2.25;;
31676;SDS011;18385;51.572;6.578;2023-07-13T09:54:19;10.10;;;2.30;;
31676;SDS011;18385;51.572;6.578;2023-07-13T09:56:46;7.90;;;2.90;;
31676;SDS011;18385;51.572;6.578;2023-07-13T09:59:18;8.45;;;2.03;;
31676;SDS011;18385;51.572;6.578;2023-07-13T10:01:45;9.32;;;1.80;;
31676;SDS011;18385;51.572;6.578;2023-07-13T10:04:14;8.07;;;1.92;;
31676;SDS011;18385;51.572;6.578;2023-07-13T10:06:44;5.80;;;1.95;;
31676;SDS011;18385;51.572;6.578;2023-07-13T10:09:10;7.53;;;2.83;;
31676;SDS011;18385;51.572;6.578;2023-07-13T10:11:40;7.00;;;2.70;;
31676;SDS011;18385;51.572;6.578;2023-07-13T10:16:35;10.75;;;1.70;;
31676;SDS011;18385;51.572;6.578;2023-07-13T10:19:02;4.82;;;1.85;;
31676;SDS011;18385;51.572;6.578;2023-07-13T10:21:39;6.78;;;2.13;;
31676;SDS011;18385;51.572;6.578;2023-07-13T10:24:24;8.88;;;2.40;;
31676;SDS011;18385;51.572;6.578;2023-07-13T10:29:29;6.65;;;1.33;;
31676;SDS011;18385;51.572;6.578;2023-07-13T10:32:01;5.88;;;1.58;;
31676;SDS011;18385;51.572;6.578;2023-07-13T10:34:27;8.20;;;1.60;;
31676;SDS011;18385;51.572;6.578;2023-07-13T10:36:53;5.28;;;1.33;;
31676;SDS011;18385;51.572;6.578;2023-07-13T10:39:20;7.10;;;1.45;;
31676;SDS011;18385;51.572;6.578;2023-07-13T10:41:59;6.70;;;1.73;;
31676;SDS011;18385;51.572;6.578;2023-07-13T10:44:32;4.63;;;1.67;;
31676;SDS011;18385;51.572;6.578;2023-07-13T10:46:59;10.07;;;2.33;;
31676;SDS011;18385;51.572;6.578;2023-07-13T10:49:31;4.25;;;1.23;;
31676;SDS011;18385;51.572;6.578;2023-07-13T10:51:58;3.80;;;1.15;;
31676;SDS011;18385;51.572;6.578;2023-07-13T10:54:33;5.45;;;1.35;;
31676;SDS011;18385;51.572;6.578;2023-07-13T10:57:21;4.53;;;1.40;;
31676;SDS011;18385;51.572;6.578;2023-07-13T11:02:28;8.48;;;1.58;;
31676;SDS011;18385;51.572;6.578;2023-07-13T11:04:55;7.03;;;1.65;;
31676;SDS011;18385;51.572;6.578;2023-07-13T11:07:31;6.18;;;1.17;;
31676;SDS011;18385;51.572;6.578;2023-07-13T11:13:35;5.28;;;1.27;;
31676;SDS011;18385;51.572;6.578;2023-07-13T11:18:49;5.78;;;1.27;;
31676;SDS011;18385;51.572;6.578;2023-07-13T11:21:33;4.28;;;1.10;;
31676;SDS011;18385;51.572;6.578;2023-07-13T11:26:50;2.90;;;1.10;;
31676;SDS011;18385;51.572;6.578;2023-07-13T11:31:43;5.78;;;1.10;;
31676;SDS011;18385;51.572;6.578;2023-07-13T11:34:41;4.25;;;1.00;;
31676;SDS011;18385;51.572;6.578;2023-07-13T11:37:10;4.70;;;1.10;;
31676;SDS011;18385;51.572;6.578;2023-07-13T11:39:41;5.18;;;1.10;;
31676;SDS011;18385;51.572;6.578;2023-07-13T11:42:10;2.73;;;0.80;;
31676;SDS011;18385;51.572;6.578;2023-07-13T11:44:48;3.70;;;1.30;;
31676;SDS011;18385;51.572;6.578;2023-07-13T11:47:19;4.45;;;1.00;;
31676;SDS011;18385;51.572;6.578;2023-07-13T11:49:50;5.45;;;0.90;;
31676;SDS011;18385;51.572;6.578;2023-07-13T11:52:31;3.00;;;1.10;;
31676;SDS011;18385;51.572;6.578;2023-07-13T11:55:03;4.53;;;0.95;;
31676;SDS011;18385;51.572;6.578;2023-07-13T11:57:43;3.20;;;1.02;;
31676;SDS011;18385;51.572;6.578;2023-07-13T12:00:21;6.18;;;1.20;;
31676;SDS011;18385;51.572;6.578;2023-07-13T12:02:49;2.90;;;0.90;;
31676;SDS011;18385;51.572;6.578;2023-07-13T12:05:17;2.78;;;0.80;;
31676;SDS011;18385;51.572;6.578;2023-07-13T12:07:45;5.85;;;1.30;;
31676;SDS011;18385;51.572;6.578;2023-07-13T12:10:22;3.70;;;0.85;;
31676;SDS011;18385;51.572;6.578;2023-07-13T12:12:54;3.67;;;1.13;;
31676;SDS011;18385;51.572;6.578;2023-07-13T12:15:37;2.00;;;1.02;;
31676;SDS011;18385;51.572;6.578;2023-07-13T12:18:17;5.65;;;0.75;;
31676;SDS011;18385;51.572;6.578;2023-07-13T12:20:46;3.38;;;0.90;;
31676;SDS011;18385;51.572;6.578;2023-07-13T12:23:23;4.13;;;0.90;;
31676;SDS011;18385;51.572;6.578;2023-07-13T12:25:57;3.28;;;0.80;;
31676;SDS011;18385;51.572;6.578;2023-07-13T12:28:35;2.67;;;0.80;;
31676;SDS011;18385;51.572;6.578;2023-07-13T12:31:03;3.13;;;0.60;;
31676;SDS011;18385;51.572;6.578;2023-07-13T12:33:32;5.13;;;1.00;;
31676;SDS011;18385;51.572;6.578;2023-07-13T12:36:02;1.80;;;1.20;;
31676;SDS011;18385;51.572;6.578;2023-07-13T12:38:31;3.67;;;1.40;;
31676;SDS011;18385;51.572;6.578;2023-07-13T12:40:58;5.70;;;1.60;;
31676;SDS011;18385;51.572;6.578;2023-07-13T12:43:24;3.40;;;1.42;;
31676;SDS011;18385;51.572;6.578;2023-07-13T12:45:56;5.25;;;1.67;;
31676;SDS011;18385;51.572;6.578;2023-07-13T12:48:42;3.63;;;1.45;;
31676;SDS011;18385;51.572;6.578;2023-07-13T12:51:11;4.93;;;1.40;;
31676;SDS011;18385;51.572;6.578;2023-07-13T12:53:42;6.60;;;1.55;;
31676;SDS011;18385;51.572;6.578;2023-07-13T12:56:19;3.25;;;1.40;;
31676;SDS011;18385;51.572;6.578;2023-07-13T12:58:48;3.55;;;2.03;;
31676;SDS011;18385;51.572;6.578;2023-07-13T13:01:19;5.82;;;1.75;;
31676;SDS011;18385;51.572;6.578;2023-07-13T13:03:48;3.08;;;1.63;;
31676;SDS011;18385;51.572;6.578;2023-07-13T13:08:43;6.53;;;2.25;;
31676;SDS011;18385;51.572;6.578;2023-07-13T13:11:17;6.10;;;2.00;;
31676;SDS011;18385;51.572;6.578;2023-07-13T13:13:44;5.30;;;1.80;;
31676;SDS011;18385;51.572;6.578;2023-07-13T13:16:29;4.60;;;1.75;;
31676;SDS011;18385;51.572;6.578;2023-07-13T13:19:22;3.42;;;1.63;;
31676;SDS011;18385;51.572;6.578;2023-07-13T13:21:54;4.40;;;2.40;;
31676;SDS011;18385;51.572;6.578;2023-07-13T13:24:22;5.30;;;1.98;;
31676;SDS011;18385;51.572;6.578;2023-07-13T13:26:50;5.38;;;1.92;;
31676;SDS011;18385;51.572;6.578;2023-07-13T13:29:21;5.63;;;2.10;;
31676;SDS011;18385;51.572;6.578;2023-07-13T13:31:51;6.78;;;2.60;;
31676;SDS011;18385;51.572;6.578;2023-07-13T13:34:18;6.03;;;2.10;;
31676;SDS011;18385;51.572;6.578;2023-07-13T13:36:44;5.30;;;1.92;;
31676;SDS011;18385;51.572;6.578;2023-07-13T13:41:49;8.07;;;3.00;;
31676;SDS011;18385;51.572;6.578;2023-07-13T13:44:16;6.05;;;2.95;;
31676;SDS011;18385;51.572;6.578;2023-07-13T13:46:44;6.05;;;3.55;;
31676;SDS011;18385;51.572;6.578;2023-07-13T13:49:21;6.93;;;2.80;;
31676;SDS011;18385;51.572;6.578;2023-07-13T13:51:49;8.05;;;3.15;;
31676;SDS011;18385;51.572;6.578;2023-07-13T13:54:15;7.80;;;2.85;;
31676;SDS011;18385;51.572;6.578;2023-07-13T13:56:46;6.05;;;3.00;;
31676;SDS011;18385;51.572;6.578;2023-07-13T13:59:14;9.57;;;2.05;;
31676;SDS011;18385;51.572;6.578;2023-07-13T14:01:41;4.70;;;2.28;;
31676;SDS011;18385;51.572;6.578;2023-07-13T14:04:13;4.38;;;2.08;;
31676;SDS011;18385;51.572;6.578;2023-07-13T14:06:42;3.92;;;2.35;;
31676;SDS011;18385;51.572;6.578;2023-07-13T14:09:09;3.28;;;2.00;;
31676;SDS011;18385;51.572;6.578;2023-07-13T14:11:36;3.25;;;1.63;;
31676;SDS011;18385;51.572;6.578;2023-07-13T14:14:02;2.78;;;1.70;;
31676;SDS011;18385;51.572;6.578;2023-07-13T14:16:30;4.47;;;1.80;;
31676;SDS011;18385;51.572;6.578;2023-07-13T14:18:58;4.20;;;1.27;;
31676;SDS011;18385;51.572;6.578;2023-07-13T14:21:26;3.35;;;1.30;;
31676;SDS011;18385;51.572;6.578;2023-07-13T14:23:53;3.90;;;1.40;;
31676;SDS011;18385;51.572;6.578;2023-07-13T14:26:20;3.05;;;1.50;;
31676;SDS011;18385;51.572;6.578;2023-07-13T14:28:49;3.15;;;1.70;;
31676;SDS011;18385;51.572;6.578;2023-07-13T14:31:16;3.30;;;1.33;;
31676;SDS011;18385;51.572;6.578;2023-07-13T14:33:42;4.72;;;1.80;;
31676;SDS011;18385;51.572;6.578;2023-07-13T14:36:31;2.92;;;1.67;;
31676;SDS011;18385;51.572;6.578;2023-07-13T14:39:00;5.75;;;1.73;;
31676;SDS011;18385;51.572;6.578;2023-07-13T14:41:36;5.93;;;1.83;;
31676;SDS011;18385;51.572;6.578;2023-07-13T14:44:07;5.15;;;2.10;;
31676;SDS011;18385;51.572;6.578;2023-07-13T14:46:42;4.78;;;1.85;;
31676;SDS011;18385;51.572;6.578;2023-07-13T14:49:20;6.95;;;2.05;;
31676;SDS011;18385;51.572;6.578;2023-07-13T14:51:47;7.87;;;3.00;;
31676;SDS011;18385;51.572;6.578;2023-07-13T14:54:13;8.07;;;2.40;;
31676;SDS011;18385;51.572;6.578;2023-07-13T14:56:39;6.50;;;2.15;;
31676;SDS011;18385;51.572;6.578;2023-07-13T14:59:05;6.25;;;2.60;;
31676;SDS011;18385;51.572;6.578;2023-07-13T15:01:32;5.82;;;2.38;;
31676;SDS011;18385;51.572;6.578;2023-07-13T15:06:27;8.30;;;2.35;;
31676;SDS011;18385;51.572;6.578;2023-07-13T15:08:54;6.07;;;2.85;;
31676;SDS011;18385;51.572;6.578;2023-07-13T15:11:20;7.05;;;2.30;;
31676;SDS011;18385;51.572;6.578;2023-07-13T15:13:47;9.05;;;3.15;;
31676;SDS011;18385;51.572;6.578;2023-07-13T15:16:15;7.85;;;2.35;;
31676;SDS011;18385;51.572;6.578;2023-07-13T15:18:47;4.47;;;1.98;;
31676;SDS011;18385;51.572;6.578;2023-07-13T15:21:14;5.30;;;2.55;;
31676;SDS011;18385;51.572;6.578;2023-07-13T15:23:46;6.65;;;1.90;;
31676;SDS011;18385;51.572;6.578;2023-07-13T15:26:13;4.07;;;2.20;;
31676;SDS011;18385;51.572;6.578;2023-07-13T15:28:40;6.20;;;2.00;;
31676;SDS011;18385;51.572;6.578;2023-07-13T15:31:16;4.43;;;1.80;;
31676;SDS011;18385;51.572;6.578;2023-07-13T15:33:50;6.03;;;2.08;;
31676;SDS011;18385;51.572;6.578;2023-07-13T15:36:17;5.25;;;1.75;;
31676;SDS011;18385;51.572;6.578;2023-07-13T15:38:45;6.82;;;1.75;;
31676;SDS011;18385;51.572;6.578;2023-07-13T15:41:27;5.90;;;2.30;;